Аэропорт: Нариманово. Астрахань

ICAO: URWA

METAR:
2019-09-21 16:00:00
URWA 211600Z 27004MPS CAVOK 10/07 Q1014 R27/010070 NOSIG RMK QFE762/1016
METAR:
2019-09-21 14:00:00
TAF URWA 211400Z 2115/2124 27003G08MPS 9999 SCT020CB